Fenton, Illinois
Current Conditions -  °F | °C
As of 6:55 PM on Wednesday 17 Dec 2014 (Local Time) from KCWI Reporting Station
Clear Clear  
Wind Chill: 11°   Ceiling: Unl
Heat Index: 18°   Visibility: 9mi
Dew Point: 10°   Wind: 5mph
Humidity: 73%   Direction: 340°NNW
Pressure: 30.32"   Gusts: NA
Location:  41.73°N, 90.03°W
Report Text: KCWI 180055Z AUTO 34004KT 9SM CLR M08/M12 A3032 RMK AO1
Loading
Personal Weather Stations






























Interactive Weather Map New forecast layout! Learn more

10-Day Weather Forecast

Advertisements
Track Severe Weather on mobile